Time,TemperatureF,DewpointF,PressureIn,WindDirection,WindDirectionDegrees,WindSpeedMPH,WindSpeedGustMPH,Humidity,HourlyPrecipIn,Conditions,Clouds,dailyrainin,SoftwareType,DateUTC
2013-05-07 00:01:00,50.0,44.0,30.11,WSW,237,7.0,15.0,80,0.00,,,0.00,,2013-05-07 03:01:00,
2013-05-07 00:11:00,50.0,44.0,30.11,WSW,237,7.0,15.0,80,0.00,,,0.00,,2013-05-07 03:11:00,
2013-05-07 00:22:00,50.0,44.0,30.11,SW,227,7.0,17.0,80,0.00,,,0.00,,2013-05-07 03:22:00,
2013-05-07 00:32:00,50.0,44.0,30.11,WSW,241,7.0,17.0,81,0.00,,,0.00,,2013-05-07 03:32:00,
2013-05-07 00:42:00,50.0,44.0,30.11,WSW,241,7.0,17.0,81,0.00,,,0.00,,2013-05-07 03:42:00,
2013-05-07 00:53:00,49.0,44.0,30.11,WSW,237,5.0,13.0,82,0.00,,,0.00,,2013-05-07 03:53:00,
2013-05-07 01:03:00,49.0,43.0,30.11,WSW,248,8.0,17.0,81,0.00,,,0.00,,2013-05-07 04:03:00,
2013-05-07 01:12:00,49.0,43.0,30.11,WSW,248,8.0,17.0,81,0.00,,,0.00,,2013-05-07 04:12:00,
2013-05-07 01:23:00,50.0,44.0,30.11,WSW,240,7.0,20.0,80,0.00,,,0.00,,2013-05-07 04:23:00,
2013-05-07 01:33:00,50.0,44.0,30.11,SW,233,9.0,20.0,80,0.00,,,0.00,,2013-05-07 04:33:00,
2013-05-07 01:42:00,50.0,44.0,30.11,SW,233,9.0,20.0,80,0.00,,,0.00,,2013-05-07 04:42:00,
2013-05-07 01:53:00,49.0,43.0,30.11,SW,234,9.0,15.0,81,0.00,,,0.00,,2013-05-07 04:53:00,
2013-05-07 02:02:00,49.0,44.0,30.11,SW,225,5.0,12.0,82,0.00,,,0.00,,2013-05-07 05:02:00,
2013-05-07 02:12:00,49.0,44.0,30.11,SW,225,5.0,12.0,82,0.00,,,0.00,,2013-05-07 05:12:00,
2013-05-07 02:22:00,48.0,43.0,30.11,SW,226,6.0,12.0,84,0.00,,,0.00,,2013-05-07 05:22:00,
2013-05-07 02:32:00,48.0,44.0,30.11,SW,219,5.0,9.0,85,0.00,,,0.00,,2013-05-07 05:32:00,
2013-05-07 02:42:00,48.0,44.0,30.11,SW,219,5.0,9.0,85,0.00,,,0.00,,2013-05-07 05:42:00,
2013-05-07 02:52:00,47.0,43.0,30.11,SW,220,5.0,9.0,86,0.00,,,0.00,,2013-05-07 05:52:00,
2013-05-07 03:02:00,47.0,43.0,30.10,SW,214,3.0,7.0,87,0.00,,,0.00,,2013-05-07 06:02:00,
2013-05-07 03:12:00,47.0,43.0,30.10,SW,214,3.0,7.0,87,0.00,,,0.00,,2013-05-07 06:12:00,
2013-05-07 03:22:00,47.0,44.0,30.10,SW,229,5.0,8.0,88,0.00,,,0.00,,2013-05-07 06:22:00,
2013-05-07 03:32:00,47.0,44.0,30.10,SW,226,5.0,9.0,88,0.00,,,0.00,,2013-05-07 06:32:00,
2013-05-07 03:42:00,47.0,44.0,30.10,SW,226,5.0,9.0,88,0.00,,,0.00,,2013-05-07 06:42:00,
2013-05-07 03:52:00,46.0,43.0,30.10,SW,229,2.0,7.0,89,0.00,,,0.00,,2013-05-07 06:52:00,
2013-05-07 04:02:00,46.0,43.0,30.10,WSW,241,1.0,8.0,90,0.00,,,0.00,,2013-05-07 07:02:00,
2013-05-07 04:11:00,46.0,43.0,30.10,WSW,241,1.0,8.0,90,0.00,,,0.00,,2013-05-07 07:11:00,
2013-05-07 04:22:00,46.0,43.0,30.10,SW,224,2.0,5.0,90,0.00,,,0.00,,2013-05-07 07:22:00,
2013-05-07 04:32:00,45.0,43.0,30.09,SW,218,3.0,5.0,91,0.00,,,0.00,,2013-05-07 07:32:00,
2013-05-07 04:42:00,45.0,43.0,30.09,SW,218,3.0,5.0,91,0.00,,,0.00,,2013-05-07 07:42:00,
2013-05-07 04:52:00,45.0,43.0,30.09,WSW,240,0.0,6.0,92,0.00,,,0.00,,2013-05-07 07:52:00,
2013-05-07 05:02:00,44.0,42.0,30.09,SW,227,1.0,5.0,93,0.00,,,0.00,,2013-05-07 08:02:00,
2013-05-07 05:11:00,44.0,42.0,30.09,SW,227,1.0,5.0,93,0.00,,,0.00,,2013-05-07 08:11:00,
2013-05-07 05:21:00,44.0,42.0,30.09,SW,227,2.0,5.0,93,0.00,,,0.00,,2013-05-07 08:21:00,
2013-05-07 05:32:00,44.0,42.0,30.09,SW,227,3.0,5.0,94,0.00,,,0.00,,2013-05-07 08:32:00,
2013-05-07 05:42:00,44.0,42.0,30.09,SW,227,3.0,5.0,94,0.00,,,0.00,,2013-05-07 08:42:00,
2013-05-07 05:52:00,44.0,43.0,30.09,SW,230,3.0,6.0,97,0.00,,,0.00,,2013-05-07 08:52:00,
2013-05-07 06:01:00,45.0,45.0,30.09,SW,236,5.0,14.0,100,0.00,,,0.00,,2013-05-07 09:01:00,
2013-05-07 06:11:00,45.0,45.0,30.09,SW,236,5.0,14.0,100,0.00,,,0.00,,2013-05-07 09:11:00,
2013-05-07 06:22:00,48.0,48.0,30.09,WSW,237,9.0,18.0,100,0.00,,,0.00,,2013-05-07 09:22:00,
2013-05-07 06:33:00,49.0,49.0,30.09,WSW,246,9.0,16.0,100,0.00,,,0.00,,2013-05-07 09:33:00,
2013-05-07 06:42:00,49.0,49.0,30.09,WSW,246,9.0,16.0,100,0.00,,,0.00,,2013-05-07 09:42:00,
2013-05-07 06:52:00,49.0,49.0,30.09,WSW,246,6.0,17.0,100,0.00,,,0.00,,2013-05-07 09:52:00,
2013-05-07 07:03:00,50.0,50.0,30.08,WSW,253,7.0,20.0,100,0.00,,,0.00,,2013-05-07 10:03:00,
2013-05-07 07:12:00,50.0,50.0,30.08,WSW,253,7.0,20.0,100,0.00,,,0.00,,2013-05-07 10:12:00,
2013-05-07 07:23:00,50.0,50.0,30.08,WSW,237,6.0,16.0,100,0.00,,,0.00,,2013-05-07 10:23:00,
2013-05-07 07:32:00,51.0,51.0,30.08,WSW,245,6.0,17.0,100,0.00,,,0.00,,2013-05-07 10:32:00,
2013-05-07 07:42:00,51.0,51.0,30.08,SW,236,7.0,15.0,100,0.00,,,0.00,,2013-05-07 10:42:00,
2013-05-07 07:52:00,51.0,51.0,30.08,SW,236,7.0,15.0,100,0.00,,,0.00,,2013-05-07 10:52:00,
2013-05-07 08:02:00,52.0,52.0,30.08,SW,226,7.0,15.0,100,0.00,,,0.00,,2013-05-07 11:02:00,
2013-05-07 08:12:00,52.0,52.0,30.08,SW,226,7.0,15.0,100,0.00,,,0.00,,2013-05-07 11:12:00,
2013-05-07 08:22:00,53.0,53.0,30.08,SW,226,7.0,16.0,100,0.00,,,0.00,,2013-05-07 11:22:00,
2013-05-07 08:32:00,54.0,54.0,30.08,SW,228,5.0,12.0,100,0.00,,,0.00,,2013-05-07 11:32:00,
2013-05-07 08:42:00,54.0,54.0,30.08,SW,228,5.0,12.0,100,0.00,,,0.00,,2013-05-07 11:42:00,
2013-05-07 08:52:00,55.0,55.0,30.07,WSW,248,9.0,16.0,100,0.00,,,0.00,,2013-05-07 11:52:00,
2013-05-07 09:02:00,57.0,56.0,30.07,WSW,245,7.0,20.0,97,0.00,,,0.00,,2013-05-07 12:02:00,
2013-05-07 09:11:00,57.0,56.0,30.07,WSW,245,7.0,20.0,97,0.00,,,0.00,,2013-05-07 12:11:00,
2013-05-07 09:21:00,57.0,55.0,30.07,WSW,247,6.0,20.0,92,0.00,,,0.00,,2013-05-07 12:21:00,
2013-05-07 09:32:00,58.0,55.0,30.07,WSW,245,8.0,20.0,90,0.00,,,0.00,,2013-05-07 12:32:00,
2013-05-07 09:42:00,58.0,55.0,30.07,WSW,245,8.0,20.0,90,0.00,,,0.00,,2013-05-07 12:42:00,
2013-05-07 09:52:00,59.0,55.0,30.06,WSW,242,10.0,20.0,87,0.00,,,0.00,,2013-05-07 12:52:00,
2013-05-07 10:02:00,59.0,54.0,30.06,WSW,251,8.0,21.0,85,0.00,,,0.00,,2013-05-07 13:02:00,
2013-05-07 10:11:00,59.0,54.0,30.06,WSW,251,8.0,21.0,85,0.00,,,0.00,,2013-05-07 13:11:00,
2013-05-07 10:22:00,60.0,55.0,30.06,WSW,247,8.0,20.0,83,0.00,,,0.00,,2013-05-07 13:22:00,
2013-05-07 10:32:00,60.0,54.0,30.06,WSW,240,9.0,20.0,81,0.00,,,0.00,,2013-05-07 13:32:00,
2013-05-07 10:42:00,60.0,54.0,30.06,WSW,240,9.0,20.0,81,0.00,,,0.00,,2013-05-07 13:42:00,
2013-05-07 10:52:00,61.0,54.0,30.05,WSW,254,6.0,18.0,78,0.00,,,0.00,,2013-05-07 13:52:00,
2013-05-07 11:02:00,62.0,54.0,30.05,WSW,248,9.0,23.0,75,0.00,,,0.00,,2013-05-07 14:02:00,
2013-05-07 11:11:00,62.0,54.0,30.05,WSW,248,9.0,23.0,75,0.00,,,0.00,,2013-05-07 14:11:00,
2013-05-07 11:21:00,62.0,52.0,30.05,WSW,244,9.0,20.0,71,0.00,,,0.00,,2013-05-07 14:21:00,
2013-05-07 11:32:00,62.0,51.0,30.05,WSW,243,9.0,21.0,66,0.00,,,0.00,,2013-05-07 14:32:00,
2013-05-07 11:42:00,62.0,51.0,30.05,WSW,243,9.0,21.0,66,0.00,,,0.00,,2013-05-07 14:42:00,
2013-05-07 11:52:00,63.0,50.0,30.04,WSW,244,9.0,22.0,63,0.00,,,0.00,,2013-05-07 14:52:00,
2013-05-07 12:01:00,65.0,51.0,30.04,WSW,244,9.0,23.0,60,0.00,,,0.00,,2013-05-07 15:01:00,
2013-05-07 12:12:00,65.0,51.0,30.04,WSW,244,9.0,23.0,60,0.00,,,0.00,,2013-05-07 15:12:00,
2013-05-07 12:21:00,65.0,50.0,30.04,WSW,241,10.0,22.0,59,0.00,,,0.00,,2013-05-07 15:21:00,
2013-05-07 12:33:00,66.0,49.0,30.03,WSW,240,13.0,24.0,55,0.00,,,0.00,,2013-05-07 15:33:00,
2013-05-07 12:42:00,66.0,49.0,30.03,WSW,240,13.0,24.0,55,0.00,,,0.00,,2013-05-07 15:42:00,
2013-05-07 12:53:00,66.0,49.0,30.03,WSW,240,13.0,24.0,55,0.00,,,0.00,,2013-05-07 15:53:00,
2013-05-07 13:03:00,68.0,51.0,30.02,SW,234,11.0,22.0,54,0.00,,,0.00,,2013-05-07 16:03:00,
2013-05-07 13:12:00,68.0,49.0,30.02,SW,227,11.0,23.0,50,0.00,,,0.00,,2013-05-07 16:12:00,
2013-05-07 13:22:00,68.0,49.0,30.02,SW,227,11.0,23.0,50,0.00,,,0.00,,2013-05-07 16:22:00,
2013-05-07 13:32:00,68.0,48.0,30.01,WSW,244,10.0,22.0,48,0.00,,,0.00,,2013-05-07 16:32:00,
2013-05-07 13:41:00,68.0,48.0,30.01,WSW,244,10.0,22.0,48,0.00,,,0.00,,2013-05-07 16:41:00,
2013-05-07 13:52:00,68.0,48.0,30.01,WSW,244,10.0,22.0,48,0.00,,,0.00,,2013-05-07 16:52:00,
2013-05-07 14:01:00,70.0,48.0,30.01,SW,230,14.0,22.0,46,0.00,,,0.00,,2013-05-07 17:01:00,
2013-05-07 14:12:00,71.0,50.0,30.01,SW,236,12.0,20.0,47,0.00,,,0.00,,2013-05-07 17:12:00,
2013-05-07 14:21:00,71.0,50.0,30.01,SW,236,12.0,20.0,47,0.00,,,0.00,,2013-05-07 17:21:00,
2013-05-07 14:32:00,72.0,51.0,30.01,SW,233,8.0,21.0,48,0.00,,,0.00,,2013-05-07 17:32:00,
2013-05-07 14:41:00,72.0,49.0,30.00,WSW,237,10.0,23.0,44,0.00,,,0.00,,2013-05-07 17:41:00,
2013-05-07 14:52:00,72.0,49.0,30.00,WSW,237,10.0,23.0,44,0.00,,,0.00,,2013-05-07 17:52:00,
2013-05-07 15:01:00,72.0,49.0,30.00,WSW,243,9.0,20.0,44,0.00,,,0.00,,2013-05-07 18:01:00,
2013-05-07 15:11:00,73.0,47.0,29.99,SW,234,12.0,20.0,40,0.00,,,0.00,,2013-05-07 18:11:00,
2013-05-07 15:21:00,73.0,47.0,29.99,SW,234,12.0,20.0,40,0.00,,,0.00,,2013-05-07 18:21:00,
2013-05-07 15:31:00,73.0,47.0,29.99,WSW,237,10.0,21.0,39,0.00,,,0.00,,2013-05-07 18:31:00,
2013-05-07 15:42:00,73.0,47.0,29.99,WSW,237,10.0,21.0,39,0.00,,,0.00,,2013-05-07 18:42:00,
2013-05-07 15:52:00,73.0,47.0,29.99,SW,230,10.0,21.0,39,0.00,,,0.00,,2013-05-07 18:52:00,
2013-05-07 16:02:00,73.0,45.0,29.99,WSW,246,12.0,23.0,37,0.00,,,0.00,,2013-05-07 19:02:00,
2013-05-07 16:11:00,73.0,45.0,29.99,WSW,246,12.0,23.0,37,0.00,,,0.00,,2013-05-07 19:11:00,
2013-05-07 16:21:00,72.0,44.0,29.99,WSW,248,8.0,20.0,37,0.00,,,0.00,,2013-05-07 19:21:00,
2013-05-07 16:32:00,72.0,46.0,29.98,WSW,247,9.0,20.0,39,0.00,,,0.00,,2013-05-07 19:32:00,
2013-05-07 16:42:00,72.0,46.0,29.98,WSW,247,9.0,20.0,39,0.00,,,0.00,,2013-05-07 19:42:00,
2013-05-07 16:52:00,71.0,45.0,29.99,SW,233,8.0,16.0,40,0.00,,,0.00,,2013-05-07 19:52:00,
2013-05-07 17:02:00,70.0,48.0,29.99,WSW,250,7.0,17.0,45,0.00,,,0.00,,2013-05-07 20:02:00,
2013-05-07 17:12:00,70.0,48.0,29.99,WSW,250,7.0,17.0,45,0.00,,,0.00,,2013-05-07 20:12:00,
2013-05-07 17:22:00,70.0,48.0,29.98,WSW,250,9.0,18.0,45,0.00,,,0.00,,2013-05-07 20:22:00,
2013-05-07 17:32:00,69.0,47.0,29.98,WSW,250,7.0,17.0,45,0.00,,,0.00,,2013-05-07 20:32:00,
2013-05-07 17:42:00,69.0,47.0,29.98,WSW,250,7.0,17.0,45,0.00,,,0.00,,2013-05-07 20:42:00,
2013-05-07 17:52:00,69.0,46.0,29.98,WSW,250,9.0,22.0,44,0.00,,,0.00,,2013-05-07 20:52:00,
2013-05-07 18:01:00,69.0,47.0,29.98,WSW,249,8.0,18.0,45,0.00,,,0.00,,2013-05-07 21:01:00,
2013-05-07 18:11:00,69.0,47.0,29.98,WSW,249,8.0,18.0,45,0.00,,,0.00,,2013-05-07 21:11:00,
2013-05-07 18:22:00,67.0,45.0,29.98,WSW,245,7.0,21.0,45,0.00,,,0.00,,2013-05-07 21:22:00,
2013-05-07 18:32:00,67.0,46.0,29.98,WSW,241,9.0,20.0,46,0.00,,,0.00,,2013-05-07 21:32:00,
2013-05-07 18:42:00,67.0,46.0,29.98,WSW,241,9.0,20.0,46,0.00,,,0.00,,2013-05-07 21:42:00,
2013-05-07 18:53:00,65.0,44.0,29.98,SW,236,7.0,22.0,46,0.00,,,0.00,,2013-05-07 21:53:00,
2013-05-07 19:02:00,65.0,44.0,29.98,WSW,243,7.0,20.0,47,0.00,,,0.00,,2013-05-07 22:02:00,
2013-05-07 19:13:00,65.0,44.0,29.98,WSW,243,7.0,20.0,47,0.00,,,0.00,,2013-05-07 22:13:00,
2013-05-07 19:22:00,64.0,44.0,29.98,WSW,244,7.0,18.0,49,0.00,,,0.00,,2013-05-07 22:22:00,
2013-05-07 19:33:00,63.0,45.0,29.99,WSW,254,4.0,14.0,51,0.00,,,0.00,,2013-05-07 22:33:00,
2013-05-07 19:42:00,62.0,45.0,30.00,WSW,246,5.0,14.0,53,0.00,,,0.00,,2013-05-07 22:42:00,
2013-05-07 19:52:00,62.0,45.0,30.00,WSW,246,5.0,14.0,53,0.00,,,0.00,,2013-05-07 22:52:00,
2013-05-07 20:02:00,61.0,45.0,30.00,WSW,247,6.0,13.0,55,0.00,,,0.00,,2013-05-07 23:02:00,
2013-05-07 20:12:00,61.0,45.0,30.00,WSW,247,6.0,13.0,55,0.00,,,0.00,,2013-05-07 23:12:00,
2013-05-07 20:21:00,60.0,44.0,30.01,WSW,238,6.0,16.0,56,0.00,,,0.00,,2013-05-07 23:21:00,
2013-05-07 20:32:00,59.0,44.0,30.01,WSW,237,3.0,14.0,57,0.00,,,0.00,,2013-05-07 23:32:00,
2013-05-07 20:42:00,59.0,44.0,30.01,WSW,240,4.0,13.0,57,0.00,,,0.00,,2013-05-07 23:42:00,
2013-05-07 20:52:00,59.0,44.0,30.01,WSW,240,4.0,13.0,57,0.00,,,0.00,,2013-05-07 23:52:00,
2013-05-07 21:02:00,59.0,43.0,30.01,WSW,242,6.0,16.0,55,0.00,,,0.00,,2013-05-08 00:02:00,
2013-05-07 21:12:00,58.0,40.0,30.01,WSW,239,4.0,18.0,51,0.00,,,0.00,,2013-05-08 00:12:00,
2013-05-07 21:22:00,58.0,40.0,30.01,WSW,239,4.0,18.0,51,0.00,,,0.00,,2013-05-08 00:22:00,
2013-05-07 21:32:00,58.0,40.0,30.02,WSW,252,6.0,15.0,52,0.00,,,0.00,,2013-05-08 00:32:00,
2013-05-07 21:42:00,58.0,41.0,30.03,WSW,248,7.0,20.0,53,0.00,,,0.00,,2013-05-08 00:42:00,
2013-05-07 21:52:00,58.0,41.0,30.03,WSW,248,7.0,20.0,53,0.00,,,0.00,,2013-05-08 00:52:00,
2013-05-07 22:02:00,58.0,42.0,30.03,WSW,242,6.0,15.0,56,0.00,,,0.00,,2013-05-08 01:02:00,
2013-05-07 22:11:00,58.0,44.0,30.04,WSW,257,5.0,12.0,59,0.00,,,0.00,,2013-05-08 01:11:00,
2013-05-07 22:22:00,58.0,44.0,30.04,WSW,257,5.0,12.0,59,0.00,,,0.00,,2013-05-08 01:22:00,
2013-05-07 22:32:00,58.0,45.0,30.04,WSW,255,7.0,20.0,61,0.00,,,0.00,,2013-05-08 01:32:00,
2013-05-07 22:42:00,58.0,45.0,30.04,WSW,246,6.0,16.0,63,0.00,,,0.00,,2013-05-08 01:42:00,
2013-05-07 22:52:00,58.0,45.0,30.04,WSW,246,6.0,16.0,63,0.00,,,0.00,,2013-05-08 01:52:00,
2013-05-07 23:02:00,58.0,46.0,30.05,WSW,237,5.0,15.0,64,0.00,,,0.00,,2013-05-08 02:02:00,
2013-05-07 23:12:00,58.0,46.0,30.05,WSW,237,5.0,15.0,64,0.00,,,0.00,,2013-05-08 02:12:00,
2013-05-07 23:22:00,58.0,47.0,30.06,WSW,245,4.0,13.0,66,0.00,,,0.00,,2013-05-08 02:22:00,
2013-05-07 23:32:00,58.0,47.0,30.06,West,265,5.0,14.0,68,0.00,,,0.00,,2013-05-08 02:32:00,
2013-05-07 23:42:00,58.0,48.0,30.08,West,264,5.0,10.0,69,0.00,,,0.00,,2013-05-08 02:42:00,
2013-05-07 23:52:00,58.0,48.0,30.08,West,264,5.0,10.0,69,0.00,,,0.00,,2013-05-08 02:52:00,